Time;durP1;ratioP1;P1;durP2;ratioP2;P2;SDS_P1;SDS_P2;PMS_P1;PMS_P2;Temp;Humidity;BMP_temperature;BMP_pressure;BME280_temperature;BME280_humidity;BME280_pressure;Samples;Min_cycle;Max_cycle;Signal;HPM_P1;HPM_P2
2022/05/08 00:02:01;;;;;;;;;;;16.80;53.20;;;;;;5070669;27;83202;-47
2022/05/08 00:04:27;;;;;;;;;;;16.80;53.20;;;;;;5071052;27;81071;-47
2022/05/08 00:06:53;;;;;;;;;;;16.80;53.20;;;;;;5071278;27;81779;-47
2022/05/08 00:09:18;;;;;;;;;;;16.80;53.10;;;;;;5070628;27;83802;-47
2022/05/08 00:11:44;;;;;;;;;;;16.80;53.20;;;;;;5070103;27;82887;-48
2022/05/08 00:14:09;;;;;;;;;;;16.80;53.10;;;;;;5070417;27;82751;-47
2022/05/08 00:16:35;;;;;;;;;;;16.70;53.10;;;;;;5073608;27;82463;-47
2022/05/08 00:19:01;;;;;;;;;;;16.70;53.00;;;;;;5070738;27;82582;-48
2022/05/08 00:21:26;;;;;;;;;;;16.70;52.90;;;;;;5070699;27;82389;-47
2022/05/08 00:23:52;;;;;;;;;;;16.70;52.90;;;;;;5070763;27;82139;-48
2022/05/08 00:26:19;;;;;;;;;;;16.70;52.80;;;;;;5070677;27;82022;-49
2022/05/08 00:28:45;;;;;;;;;;;16.70;52.80;;;;;;5070539;27;81821;-47
2022/05/08 00:31:11;;;;;;;;;;;16.60;52.80;;;;;;5070535;27;82090;-47
2022/05/08 00:33:37;;;;;;;;;;;16.60;52.80;;;;;;5070753;27;81827;-47
2022/05/08 00:36:03;;;;;;;;;;;16.60;52.80;;;;;;5069652;27;84457;-48
2022/05/08 00:38:29;;;;;;;;;;;16.60;52.80;;;;;;5073137;27;81870;-47
2022/05/08 00:40:55;;;;;;;;;;;16.50;52.60;;;;;;5070462;27;82369;-47
2022/05/08 00:43:47;;;;;;;;;;;16.50;52.70;;;;;;5070304;27;82041;-47
2022/05/08 00:46:13;;;;;;;;;;;16.50;52.80;;;;;;5066462;27;82021;-47
2022/05/08 00:48:40;;;;;;;;;;;16.50;52.70;;;;;;5069983;27;83408;-47
2022/05/08 00:51:08;;;;;;;;;;;16.50;52.60;;;;;;5070262;27;81767;-47
2022/05/08 00:53:38;;;;;;;;;;;16.50;52.70;;;;;;5070628;27;83014;-47
2022/05/08 00:56:05;;;;;;;;;;;16.50;52.80;;;;;;5069942;27;83275;-47
2022/05/08 00:58:32;;;;;;;;;;;16.50;52.80;;;;;;5070105;27;81724;-47
2022/05/08 01:00:58;;;;;;;;;;;16.50;52.80;;;;;;5071999;27;82936;-47
2022/05/08 01:03:23;;;;;;;;;;;16.40;52.80;;;;;;5069570;27;81993;-47
2022/05/08 01:05:52;;;;;;;;;;;16.40;52.70;;;;;;5069958;27;82987;-47
2022/05/08 01:08:18;;;;;;;;;;;16.50;52.90;;;;;;5069750;27;83861;-47
2022/05/08 01:10:44;;;;;;;;;;;16.40;52.80;;;;;;5069929;27;82090;-47
2022/05/08 01:13:10;;;;;;;;;;;16.40;52.80;;;;;;5070156;27;81807;-47
2022/05/08 01:15:42;;;;;;;;;;;16.40;52.80;;;;;;5069780;27;83548;-47
2022/05/08 01:18:08;;;;;;;;;;;16.40;52.90;;;;;;5070376;27;81117;-48
2022/05/08 01:20:34;;;;;;;;;;;16.40;52.90;;;;;;5069811;27;82163;-48
2022/05/08 01:23:05;;;;;;;;;;;16.30;52.90;;;;;;5072405;27;82671;-47
2022/05/08 01:25:31;;;;;;;;;;;16.30;53.00;;;;;;5070600;27;82962;-47
2022/05/08 01:27:57;;;;;;;;;;;16.30;53.00;;;;;;5073243;27;82593;-47
2022/05/08 01:30:22;;;;;;;;;;;16.30;53.00;;;;;;5073556;27;81829;-47
2022/05/08 01:32:48;;;;;;;;;;;16.30;53.10;;;;;;5073284;27;83104;-47
2022/05/08 01:35:14;;;;;;;;;;;16.30;53.00;;;;;;5073100;27;83531;-47
2022/05/08 01:37:40;;;;;;;;;;;16.30;53.10;;;;;;5073552;27;82020;-47
2022/05/08 01:40:07;;;;;;;;;;;16.20;53.10;;;;;;5073284;27;83428;-47
2022/05/08 01:42:32;;;;;;;;;;;16.20;53.10;;;;;;5076204;27;82788;-47
2022/05/08 01:44:59;;;;;;;;;;;16.20;53.10;;;;;;5073389;27;81772;-47
2022/05/08 01:50:09;;;;;;;;;;;16.20;53.10;;;;;;5069425;27;82750;-47
2022/05/08 01:52:34;;;;;;;;;;;16.20;53.10;;;;;;5073340;27;82936;-47
2022/05/08 01:55:01;;;;;;;;;;;16.10;53.10;;;;;;5072884;27;83557;-47
2022/05/08 01:57:26;;;;;;;;;;;16.10;53.20;;;;;;5073214;27;81902;-47
2022/05/08 01:59:53;;;;;;;;;;;16.10;53.20;;;;;;5072924;27;82819;-47
2022/05/08 02:02:19;;;;;;;;;;;16.10;53.20;;;;;;5072636;27;83698;-47
2022/05/08 02:04:45;;;;;;;;;;;16.10;53.20;;;;;;5075294;27;81781;-47
2022/05/08 02:07:11;;;;;;;;;;;16.10;53.30;;;;;;5073157;27;81945;-47
2022/05/08 02:09:37;;;;;;;;;;;16.00;53.30;;;;;;5072468;27;81716;-47
2022/05/08 02:12:04;;;;;;;;;;;16.00;53.30;;;;;;5072711;27;83411;-47
2022/05/08 02:14:29;;;;;;;;;;;16.00;53.30;;;;;;5072006;27;82820;-47
2022/05/08 02:16:55;;;;;;;;;;;16.00;53.30;;;;;;5072673;27;81814;-47
2022/05/08 02:19:21;;;;;;;;;;;16.00;53.30;;;;;;5073002;27;82069;-47
2022/05/08 02:21:47;;;;;;;;;;;16.00;53.40;;;;;;5072414;27;83204;-47
2022/05/08 02:24:13;;;;;;;;;;;15.90;53.40;;;;;;5072810;27;81820;-47
2022/05/08 02:26:39;;;;;;;;;;;15.90;53.40;;;;;;5075290;27;81842;-47
2022/05/08 02:29:04;;;;;;;;;;;15.90;53.40;;;;;;5072499;27;81800;-48
2022/05/08 02:31:31;;;;;;;;;;;15.90;53.40;;;;;;5072924;27;82900;-47
2022/05/08 02:33:57;;;;;;;;;;;15.90;53.60;;;;;;5072189;27;82590;-48
2022/05/08 02:36:22;;;;;;;;;;;15.80;53.50;;;;;;5071980;27;81923;-48
2022/05/08 02:38:48;;;;;;;;;;;15.90;53.50;;;;;;5071742;27;82801;-51
2022/05/08 02:41:13;;;;;;;;;;;15.80;53.50;;;;;;5071975;27;82973;-49
2022/05/08 02:43:39;;;;;;;;;;;15.80;53.50;;;;;;5072180;27;81848;-48
2022/05/08 02:46:05;;;;;;;;;;;15.80;53.60;;;;;;5072424;27;81924;-47
2022/05/08 02:48:30;;;;;;;;;;;15.80;53.60;;;;;;5074767;27;82644;-47
2022/05/08 02:50:56;;;;;;;;;;;15.80;53.50;;;;;;5072195;27;82071;-47
2022/05/08 02:53:22;;;;;;;;;;;15.80;53.60;;;;;;5071945;27;83472;-47
2022/05/08 02:58:34;;;;;;;;;;;15.70;54.10;;;;;;5072511;27;81715;-47
2022/05/08 03:01:01;;;;;;;;;;;15.70;53.50;;;;;;5071766;27;83610;-48
2022/05/08 03:03:26;;;;;;;;;;;15.70;53.50;;;;;;5070841;27;82787;-47
2022/05/08 03:05:52;;;;;;;;;;;15.70;53.50;;;;;;5072068;27;82772;-47
2022/05/08 03:08:18;;;;;;;;;;;15.70;53.50;;;;;;5071896;27;82032;-47
2022/05/08 03:13:29;;;;;;;;;;;15.60;53.50;;;;;;5068636;27;82138;-47
2022/05/08 03:15:55;;;;;;;;;;;15.60;53.50;;;;;;5071655;27;81832;-47
2022/05/08 03:18:22;;;;;;;;;;;15.60;53.50;;;;;;5072032;27;81793;-47
2022/05/08 03:20:47;;;;;;;;;;;15.60;53.50;;;;;;5071986;27;82902;-47
2022/05/08 03:23:16;;;;;;;;;;;15.60;53.50;;;;;;5071562;27;81818;-47
2022/05/08 03:25:42;;;;;;;;;;;15.50;53.50;;;;;;5071624;27;83078;-47
2022/05/08 03:28:08;;;;;;;;;;;15.50;53.40;;;;;;5070625;27;84379;-48
2022/05/08 03:30:34;;;;;;;;;;;15.50;53.60;;;;;;5071777;27;81862;-47
2022/05/08 03:32:59;;;;;;;;;;;15.50;53.60;;;;;;5073995;27;82967;-47
2022/05/08 03:35:25;;;;;;;;;;;15.40;53.50;;;;;;5071464;27;81934;-47
2022/05/08 03:37:51;;;;;;;;;;;15.40;53.60;;;;;;5071721;27;81832;-47
2022/05/08 03:40:16;;;;;;;;;;;15.40;53.60;;;;;;5071170;27;83482;-47
2022/05/08 03:42:42;;;;;;;;;;;15.40;53.50;;;;;;5071535;27;81876;-47
2022/05/08 03:45:08;;;;;;;;;;;15.40;53.50;;;;;;5071670;27;82143;-47
2022/05/08 03:47:34;;;;;;;;;;;15.40;53.60;;;;;;5070149;27;82670;-47
2022/05/08 03:49:59;;;;;;;;;;;15.40;53.60;;;;;;5071246;27;82097;-47
2022/05/08 03:52:25;;;;;;;;;;;15.40;53.70;;;;;;5073136;27;82866;-47
2022/05/08 03:54:51;;;;;;;;;;;15.40;53.60;;;;;;5071441;27;81723;-47
2022/05/08 03:57:16;;;;;;;;;;;15.30;53.60;;;;;;5071393;27;81916;-47
2022/05/08 03:59:42;;;;;;;;;;;15.30;53.60;;;;;;5071110;27;82122;-47
2022/05/08 04:02:08;;;;;;;;;;;15.30;53.60;;;;;;5071076;27;81833;-47
2022/05/08 04:04:33;;;;;;;;;;;15.30;53.50;;;;;;5070306;27;81907;-47
2022/05/08 04:06:59;;;;;;;;;;;15.30;53.50;;;;;;5070683;27;83469;-47
2022/05/08 04:09:25;;;;;;;;;;;15.30;53.60;;;;;;5071627;27;81069;-47
2022/05/08 04:11:50;;;;;;;;;;;15.20;53.50;;;;;;5070976;27;81833;-47
2022/05/08 04:14:16;;;;;;;;;;;15.30;53.70;;;;;;5073686;27;82313;-47
2022/05/08 04:16:42;;;;;;;;;;;15.20;53.60;;;;;;5070468;27;82763;-47
2022/05/08 04:19:07;;;;;;;;;;;15.20;53.60;;;;;;5070560;27;82625;-47
2022/05/08 04:21:33;;;;;;;;;;;15.20;53.60;;;;;;5070678;27;81832;-47
2022/05/08 04:24:16;;;;;;;;;;;15.20;53.60;;;;;;5070541;27;83422;-47
2022/05/08 04:26:42;;;;;;;;;;;15.20;53.70;;;;;;5070433;27;83520;-47
2022/05/08 04:29:08;;;;;;;;;;;15.10;53.70;;;;;;5070927;27;81808;-47
2022/05/08 04:31:33;;;;;;;;;;;15.10;53.60;;;;;;5070666;27;82677;-47
2022/05/08 04:34:00;;;;;;;;;;;15.10;53.60;;;;;;5070840;27;82861;-47
2022/05/08 04:36:26;;;;;;;;;;;15.10;53.70;;;;;;5073375;27;81907;-47
2022/05/08 04:38:52;;;;;;;;;;;15.10;53.80;;;;;;5070410;27;82563;-47
2022/05/08 04:41:18;;;;;;;;;;;15.10;53.70;;;;;;5069682;27;82900;-47
2022/05/08 04:43:44;;;;;;;;;;;15.10;53.70;;;;;;5070209;27;83049;-47
2022/05/08 04:46:10;;;;;;;;;;;15.10;53.70;;;;;;5070213;27;82892;-47
2022/05/08 04:48:37;;;;;;;;;;;15.10;53.70;;;;;;5069905;27;81891;-47
2022/05/08 04:51:04;;;;;;;;;;;15.10;53.70;;;;;;5070155;27;82062;-47
2022/05/08 04:53:30;;;;;;;;;;;15.10;53.70;;;;;;5070005;27;83689;-47
2022/05/08 04:55:59;;;;;;;;;;;15.00;53.60;;;;;;5070210;27;81879;-47
2022/05/08 04:58:29;;;;;;;;;;;15.00;53.80;;;;;;5073263;27;82071;-47
2022/05/08 05:01:00;;;;;;;;;;;15.10;53.80;;;;;;5069969;27;81848;-46
2022/05/08 05:03:26;;;;;;;;;;;15.00;53.70;;;;;;5069260;27;81922;-47
2022/05/08 05:05:52;;;;;;;;;;;15.00;53.70;;;;;;5069088;27;84360;-47
2022/05/08 05:08:18;;;;;;;;;;;15.00;53.80;;;;;;5070290;27;81895;-47
2022/05/08 05:10:44;;;;;;;;;;;15.00;53.80;;;;;;5069903;27;83034;-47
2022/05/08 05:13:10;;;;;;;;;;;15.10;53.70;;;;;;5069279;27;83426;-47
2022/05/08 05:15:35;;;;;;;;;;;15.00;53.80;;;;;;5069510;27;81813;-47
2022/05/08 05:18:02;;;;;;;;;;;15.00;53.80;;;;;;5069777;27;81999;-47
2022/05/08 05:20:28;;;;;;;;;;;15.00;53.80;;;;;;5071732;27;82585;-48
2022/05/08 05:22:54;;;;;;;;;;;15.00;53.80;;;;;;5069558;27;83235;-47
2022/05/08 05:25:19;;;;;;;;;;;15.00;53.80;;;;;;5068824;27;82589;-47
2022/05/08 05:27:45;;;;;;;;;;;15.00;53.80;;;;;;5069230;27;81856;-48
2022/05/08 05:30:11;;;;;;;;;;;15.00;53.80;;;;;;5068696;27;83175;-47
2022/05/08 05:32:37;;;;;;;;;;;15.00;53.90;;;;;;5069215;27;82981;-47
2022/05/08 05:35:03;;;;;;;;;;;15.00;53.80;;;;;;5069034;27;81848;-47
2022/05/08 05:37:28;;;;;;;;;;;15.00;53.90;;;;;;5069378;27;81856;-47
2022/05/08 05:39:54;;;;;;;;;;;15.00;53.90;;;;;;5069426;27;82416;-48
2022/05/08 05:42:19;;;;;;;;;;;15.00;53.80;;;;;;5071920;27;81862;-47
2022/05/08 05:44:45;;;;;;;;;;;15.00;54.00;;;;;;5068913;27;82393;-47
2022/05/08 05:49:54;;;;;;;;;;;15.00;54.10;;;;;;5066091;27;81810;-47
2022/05/08 05:52:20;;;;;;;;;;;15.00;54.10;;;;;;5068838;27;82495;-47
2022/05/08 05:54:46;;;;;;;;;;;15.00;54.20;;;;;;5068457;27;82789;-47
2022/05/08 05:57:11;;;;;;;;;;;14.90;54.20;;;;;;5069447;27;81838;-48
2022/05/08 05:59:37;;;;;;;;;;;15.00;54.20;;;;;;5069044;27;82351;-47
2022/05/08 06:02:02;;;;;;;;;;;15.00;54.20;;;;;;5071576;27;81818;-47
2022/05/08 06:04:28;;;;;;;;;;;15.00;54.20;;;;;;5068517;27;82043;-47
2022/05/08 06:06:54;;;;;;;;;;;15.00;54.20;;;;;;5068866;27;81795;-47
2022/05/08 06:09:19;;;;;;;;;;;15.00;54.20;;;;;;5069206;27;81762;-47
2022/05/08 06:11:45;;;;;;;;;;;15.00;54.30;;;;;;5070961;27;83016;-47
2022/05/08 06:14:10;;;;;;;;;;;15.00;54.20;;;;;;5072239;27;81754;-47
2022/05/08 06:16:36;;;;;;;;;;;15.00;54.20;;;;;;5072713;27;81852;-47
2022/05/08 06:19:02;;;;;;;;;;;15.00;54.20;;;;;;5071261;27;84211;-47
2022/05/08 06:21:27;;;;;;;;;;;15.00;54.20;;;;;;5072609;27;81781;-47
2022/05/08 06:23:54;;;;;;;;;;;15.10;54.20;;;;;;5074772;27;81801;-47
2022/05/08 06:26:19;;;;;;;;;;;15.00;54.30;;;;;;5072069;27;82254;-47
2022/05/08 06:28:45;;;;;;;;;;;15.00;54.30;;;;;;5072260;27;81910;-47
2022/05/08 06:31:15;;;;;;;;;;;15.00;54.30;;;;;;5072034;27;83831;-47
2022/05/08 06:33:42;;;;;;;;;;;15.00;54.30;;;;;;5072420;27;82312;-47
2022/05/08 06:36:08;;;;;;;;;;;15.00;54.30;;;;;;5072322;27;82067;-47
2022/05/08 06:38:33;;;;;;;;;;;15.00;54.50;;;;;;5071999;27;82541;-47
2022/05/08 06:40:59;;;;;;;;;;;15.00;54.30;;;;;;5072118;27;81907;-47
2022/05/08 06:43:25;;;;;;;;;;;15.00;54.30;;;;;;5071062;27;83227;-47
2022/05/08 06:45:50;;;;;;;;;;;15.00;54.30;;;;;;5074110;27;83689;-47
2022/05/08 06:48:16;;;;;;;;;;;15.00;54.30;;;;;;5071796;27;82658;-47
2022/05/08 06:50:43;;;;;;;;;;;15.00;54.30;;;;;;5071516;27;82876;-47
2022/05/08 06:53:08;;;;;;;;;;;15.10;54.40;;;;;;5071949;27;81855;-47
2022/05/08 06:55:35;;;;;;;;;;;15.10;54.30;;;;;;5071861;27;81748;-47
2022/05/08 06:58:01;;;;;;;;;;;15.00;54.30;;;;;;5071358;27;82603;-47
2022/05/08 07:03:10;;;;;;;;;;;15.10;54.40;;;;;;5071655;27;81825;-47
2022/05/08 07:05:40;;;;;;;;;;;15.00;54.40;;;;;;5071565;27;82458;-47
2022/05/08 07:08:05;;;;;;;;;;;15.00;54.30;;;;;;5073677;27;82784;-47
2022/05/08 07:10:31;;;;;;;;;;;15.00;54.40;;;;;;5071133;27;82761;-47
2022/05/08 07:12:57;;;;;;;;;;;15.00;54.40;;;;;;5071408;27;81805;-47
2022/05/08 07:15:22;;;;;;;;;;;15.10;54.50;;;;;;5071337;27;82031;-47
2022/05/08 07:17:48;;;;;;;;;;;15.00;54.40;;;;;;5071024;27;82770;-47
2022/05/08 07:20:13;;;;;;;;;;;15.10;54.40;;;;;;5071206;27;81901;-47
2022/05/08 07:22:39;;;;;;;;;;;15.00;54.40;;;;;;5071348;27;82181;-47
2022/05/08 07:25:05;;;;;;;;;;;15.10;54.50;;;;;;5071430;27;82591;-47
2022/05/08 07:27:36;;;;;;;;;;;15.10;54.50;;;;;;5071412;27;81785;-47
2022/05/08 07:30:04;;;;;;;;;;;15.10;54.50;;;;;;5073548;27;83018;-47
2022/05/08 07:32:30;;;;;;;;;;;15.10;54.50;;;;;;5070505;27;82776;-46
2022/05/08 07:37:41;;;;;;;;;;;15.10;54.60;;;;;;5067755;27;81903;-47
2022/05/08 07:40:07;;;;;;;;;;;15.00;54.60;;;;;;5071168;27;81875;-47
2022/05/08 07:42:32;;;;;;;;;;;15.00;54.60;;;;;;5070784;27;82612;-47
2022/05/08 07:44:58;;;;;;;;;;;15.10;54.70;;;;;;5070480;27;82700;-47
2022/05/08 07:47:24;;;;;;;;;;;15.10;54.60;;;;;;5070683;27;81806;-47
2022/05/08 07:49:50;;;;;;;;;;;15.10;54.60;;;;;;5073687;27;82884;-47
2022/05/08 07:52:15;;;;;;;;;;;15.10;54.70;;;;;;5070694;27;82257;-48
2022/05/08 07:54:41;;;;;;;;;;;15.10;54.70;;;;;;5070982;27;81820;-47
2022/05/08 07:57:07;;;;;;;;;;;15.10;54.70;;;;;;5069731;27;83588;-47
2022/05/08 07:59:32;;;;;;;;;;;15.10;54.70;;;;;;5070511;27;81797;-47
2022/05/08 08:01:58;;;;;;;;;;;15.10;54.70;;;;;;5070579;27;82144;-47
2022/05/08 08:04:24;;;;;;;;;;;15.10;54.70;;;;;;5069872;27;83613;-47
2022/05/08 08:06:49;;;;;;;;;;;15.10;54.80;;;;;;5070562;27;81846;-47
2022/05/08 08:09:15;;;;;;;;;;;15.10;54.80;;;;;;5070508;27;81813;-46
2022/05/08 08:11:42;;;;;;;;;;;15.10;54.80;;;;;;5073277;27;82527;-47
2022/05/08 08:14:07;;;;;;;;;;;15.10;54.70;;;;;;5070771;27;82897;-47
2022/05/08 08:16:33;;;;;;;;;;;15.10;54.70;;;;;;5070284;27;82660;-47
2022/05/08 08:19:00;;;;;;;;;;;15.10;54.70;;;;;;5070192;27;81965;-49
2022/05/08 08:21:25;;;;;;;;;;;15.20;54.70;;;;;;5069778;27;82788;-47
2022/05/08 08:23:51;;;;;;;;;;;15.20;54.70;;;;;;5070315;27;82942;-47
2022/05/08 08:26:17;;;;;;;;;;;15.20;54.80;;;;;;5070112;27;81823;-47
2022/05/08 08:28:43;;;;;;;;;;;15.20;54.80;;;;;;5070143;27;82107;-47
2022/05/08 08:31:09;;;;;;;;;;;15.20;54.70;;;;;;5069844;27;83590;-47
2022/05/08 08:33:38;;;;;;;;;;;15.20;54.70;;;;;;5072354;27;81909;-47
2022/05/08 08:36:04;;;;;;;;;;;15.20;54.70;;;;;;5069830;27;83454;-47
2022/05/08 08:38:29;;;;;;;;;;;15.20;54.80;;;;;;5070425;27;81246;-47
2022/05/08 08:40:56;;;;;;;;;;;15.20;54.70;;;;;;5069892;27;82162;-47
2022/05/08 08:43:22;;;;;;;;;;;15.20;54.80;;;;;;5069721;27;83160;-47
2022/05/08 08:48:32;;;;;;;;;;;15.20;54.90;;;;;;5067139;27;82781;-47
2022/05/08 08:51:00;;;;;;;;;;;15.20;54.80;;;;;;5069575;27;83721;-47
2022/05/08 08:53:25;;;;;;;;;;;15.30;54.80;;;;;;5069763;27;81885;-47
2022/05/08 08:55:51;;;;;;;;;;;15.30;54.70;;;;;;5072250;27;83361;-47
2022/05/08 08:58:17;;;;;;;;;;;15.30;54.70;;;;;;5069664;27;81944;-47
2022/05/08 09:00:43;;;;;;;;;;;15.30;54.70;;;;;;5069645;27;82701;-47
2022/05/08 09:03:09;;;;;;;;;;;15.30;54.60;;;;;;5069541;27;82665;-47
2022/05/08 09:05:37;;;;;;;;;;;15.40;54.60;;;;;;5069468;27;82130;-47
2022/05/08 09:08:03;;;;;;;;;;;15.40;54.50;;;;;;5069432;27;83116;-49
2022/05/08 09:10:35;;;;;;;;;;;15.40;54.50;;;;;;5068641;27;83613;-47
2022/05/08 09:13:03;;;;;;;;;;;15.40;54.50;;;;;;5069492;27;81877;-47
2022/05/08 09:15:36;;;;;;;;;;;15.40;54.50;;;;;;5069567;27;82839;-47
2022/05/08 09:18:06;;;;;;;;;;;15.40;54.50;;;;;;5072343;27;82515;-48
2022/05/08 09:20:32;;;;;;;;;;;15.40;54.40;;;;;;5069634;27;82896;-46
2022/05/08 09:23:04;;;;;;;;;;;15.40;54.50;;;;;;5069013;27;83473;-46
2022/05/08 09:25:48;;;;;;;;;;;15.40;54.40;;;;;;5069216;27;81926;-46
2022/05/08 09:28:13;;;;;;;;;;;15.50;54.40;;;;;;5070234;27;82258;-46
2022/05/08 09:30:57;;;;;;;;;;;15.50;54.40;;;;;;5068911;27;83455;-48
2022/05/08 09:33:27;;;;;;;;;;;15.50;54.30;;;;;;5069428;27;81813;-46
2022/05/08 09:35:53;;;;;;;;;;;15.50;54.30;;;;;;5068965;27;82854;-46
2022/05/08 09:38:19;;;;;;;;;;;15.50;54.30;;;;;;5068998;27;82592;-47
2022/05/08 09:40:47;;;;;;;;;;;15.50;54.30;;;;;;5071913;27;81906;-46
2022/05/08 09:43:26;;;;;;;;;;;15.50;54.30;;;;;;5069045;27;83073;-47
2022/05/08 09:45:58;;;;;;;;;;;15.50;54.30;;;;;;5069112;27;81776;-47
2022/05/08 09:48:28;;;;;;;;;;;15.60;54.30;;;;;;5072602;27;82853;-47
2022/05/08 09:51:00;;;;;;;;;;;15.60;54.20;;;;;;5072598;27;82400;-47
2022/05/08 09:53:28;;;;;;;;;;;15.60;54.20;;;;;;5072987;27;81045;-48
2022/05/08 09:55:58;;;;;;;;;;;15.60;54.20;;;;;;5072811;27;81881;-47
2022/05/08 09:58:25;;;;;;;;;;;15.60;54.20;;;;;;5072410;27;82535;-47
2022/05/08 10:00:57;;;;;;;;;;;15.60;54.10;;;;;;5074626;27;82765;-47
2022/05/08 10:03:23;;;;;;;;;;;15.60;54.20;;;;;;5071872;27;83338;-48
2022/05/08 10:05:50;;;;;;;;;;;15.70;54.00;;;;;;5072608;27;81830;-48
2022/05/08 10:08:17;;;;;;;;;;;15.70;54.20;;;;;;5073243;27;82012;-48
2022/05/08 10:13:54;;;;;;;;;;;15.70;54.10;;;;;;5048085;27;82213;-47
2022/05/08 10:16:38;;;;;;;;;;;15.70;54.10;;;;;;5072799;27;82938;-47
2022/05/08 10:19:22;;;;;;;;;;;15.80;54.00;;;;;;5073042;27;82773;-47
2022/05/08 10:21:56;;;;;;;;;;;15.80;53.90;;;;;;5072567;27;81915;-47
2022/05/08 10:24:47;;;;;;;;;;;15.80;53.80;;;;;;5075140;27;82974;-47
2022/05/08 10:27:23;;;;;;;;;;;15.80;53.90;;;;;;5061961;27;82950;-47
2022/05/08 10:29:49;;;;;;;;;;;15.80;53.90;;;;;;5072360;27;83929;-48
2022/05/08 10:32:31;;;;;;;;;;;15.90;53.90;;;;;;5072268;27;82392;-47
2022/05/08 10:35:13;;;;;;;;;;;15.90;53.90;;;;;;5072752;27;81829;-47
2022/05/08 10:37:42;;;;;;;;;;;15.90;53.80;;;;;;5072508;27;81867;-47
2022/05/08 10:40:22;;;;;;;;;;;15.90;53.60;;;;;;5072186;27;83388;-47
2022/05/08 10:42:48;;;;;;;;;;;16.00;53.70;;;;;;5072275;27;81796;-47
2022/05/08 10:45:33;;;;;;;;;;;16.00;53.50;;;;;;5072702;27;82895;-48
2022/05/08 10:48:01;;;;;;;;;;;16.00;53.70;;;;;;5074790;27;83427;-47
2022/05/08 10:50:27;;;;;;;;;;;16.00;52.90;;;;;;5072166;27;83172;-47
2022/05/08 10:52:52;;;;;;;;;;;16.00;53.40;;;;;;5071230;27;84216;-47
2022/05/08 10:55:18;;;;;;;;;;;16.10;53.70;;;;;;5072122;27;82098;-47
2022/05/08 10:57:45;;;;;;;;;;;16.10;53.50;;;;;;5071825;27;82222;-47
2022/05/08 11:00:18;;;;;;;;;;;16.10;53.50;;;;;;5071890;27;82465;-47
2022/05/08 11:02:45;;;;;;;;;;;16.10;53.40;;;;;;5071639;27;81726;-48
2022/05/08 11:05:12;;;;;;;;;;;16.20;53.30;;;;;;5071392;27;83068;-47
2022/05/08 11:07:38;;;;;;;;;;;16.20;53.40;;;;;;5071215;27;82603;-48
2022/05/08 11:10:13;;;;;;;;;;;16.20;53.30;;;;;;5074650;27;81108;-47
2022/05/08 11:12:59;;;;;;;;;;;16.20;53.10;;;;;;5071317;27;82443;-48
2022/05/08 11:15:24;;;;;;;;;;;16.30;53.10;;;;;;5071199;27;81857;-48
2022/05/08 11:18:09;;;;;;;;;;;16.30;53.20;;;;;;5070595;27;83019;-48
2022/05/08 11:20:38;;;;;;;;;;;16.30;53.30;;;;;;5070997;27;83471;-48
2022/05/08 11:23:04;;;;;;;;;;;16.30;53.10;;;;;;5070980;27;81808;-48
2022/05/08 11:25:31;;;;;;;;;;;16.30;53.20;;;;;;5071301;27;83682;-48
2022/05/08 11:27:58;;;;;;;;;;;16.40;53.30;;;;;;5071164;27;82784;-49
2022/05/08 11:30:31;;;;;;;;;;;16.40;53.20;;;;;;5070868;27;81809;-47
2022/05/08 11:36:04;;;;;;;;;;;16.40;53.20;;;;;;5071970;27;81007;-48
2022/05/08 11:38:50;;;;;;;;;;;16.50;53.10;;;;;;5071060;27;81800;-49
2022/05/08 11:41:25;;;;;;;;;;;16.50;53.10;;;;;;5070727;27;82624;-48
2022/05/08 11:43:51;;;;;;;;;;;16.50;53.10;;;;;;5070235;27;82774;-48
2022/05/08 11:46:18;;;;;;;;;;;16.50;53.10;;;;;;5071063;27;81806;-48
2022/05/08 11:48:46;;;;;;;;;;;16.60;53.10;;;;;;5070450;27;83456;-48
2022/05/08 11:51:13;;;;;;;;;;;16.60;52.40;;;;;;5070825;27;82085;-48
2022/05/08 11:53:43;;;;;;;;;;;16.60;53.00;;;;;;5070611;27;83013;-48
2022/05/08 11:56:32;;;;;;;;;;;16.60;52.90;;;;;;5073505;27;81893;-48
2022/05/08 11:58:59;;;;;;;;;;;16.70;52.60;;;;;;5059696;27;83005;-48
2022/05/08 12:01:47;;;;;;;;;;;16.70;52.90;;;;;;5070783;27;82142;-48
2022/05/08 12:04:33;;;;;;;;;;;16.70;52.90;;;;;;5058818;27;82015;-48
2022/05/08 12:07:07;;;;;;;;;;;16.60;52.80;;;;;;5070760;27;82511;-48
2022/05/08 12:09:32;;;;;;;;;;;16.70;52.90;;;;;;5068621;27;84373;-48
2022/05/08 12:12:17;;;;;;;;;;;16.70;52.90;;;;;;5070505;27;81833;-48
2022/05/08 12:14:42;;;;;;;;;;;16.70;53.00;;;;;;5070507;27;82013;-48
2022/05/08 12:17:08;;;;;;;;;;;16.80;52.80;;;;;;5072848;27;82828;-48
2022/05/08 12:19:34;;;;;;;;;;;16.80;52.80;;;;;;5070252;27;83007;-48
2022/05/08 12:22:15;;;;;;;;;;;16.80;52.80;;;;;;5070313;27;82126;-47
2022/05/08 12:24:41;;;;;;;;;;;16.90;52.70;;;;;;5070478;27;81713;-48
2022/05/08 12:27:07;;;;;;;;;;;16.90;52.30;;;;;;5070503;27;81260;-48
2022/05/08 12:29:33;;;;;;;;;;;16.90;52.00;;;;;;5069932;27;83398;-49
2022/05/08 12:31:58;;;;;;;;;;;16.90;52.10;;;;;;5069983;27;81743;-48
2022/05/08 12:34:24;;;;;;;;;;;17.00;52.40;;;;;;5069758;27;82751;-48
2022/05/08 12:36:50;;;;;;;;;;;17.00;52.30;;;;;;5070094;27;82564;-49
2022/05/08 12:39:17;;;;;;;;;;;17.00;52.10;;;;;;5072692;27;81872;-49
2022/05/08 12:41:43;;;;;;;;;;;17.00;52.20;;;;;;5069704;27;82547;-48
2022/05/08 12:44:09;;;;;;;;;;;17.10;52.30;;;;;;5069851;27;81802;-48
2022/05/08 12:46:35;;;;;;;;;;;17.10;52.30;;;;;;5069861;27;83272;-48
2022/05/08 12:49:02;;;;;;;;;;;17.10;52.20;;;;;;5069898;27;81889;-49
2022/05/08 12:51:32;;;;;;;;;;;17.10;52.20;;;;;;5070421;27;81225;-48
2022/05/08 12:53:58;;;;;;;;;;;17.20;51.80;;;;;;5069963;27;81783;-48
2022/05/08 12:56:24;;;;;;;;;;;17.20;51.90;;;;;;5069879;27;83484;-49
2022/05/08 13:01:34;;;;;;;;;;;17.20;51.70;;;;;;5069091;27;82280;-48
2022/05/08 13:03:59;;;;;;;;;;;17.30;51.80;;;;;;5068895;27;81864;-48
2022/05/08 13:06:25;;;;;;;;;;;17.30;51.80;;;;;;5069582;27;81910;-49
2022/05/08 13:08:53;;;;;;;;;;;17.30;51.80;;;;;;5069593;27;82188;-48
2022/05/08 13:11:19;;;;;;;;;;;17.30;51.60;;;;;;5069629;27;81899;-48
2022/05/08 13:13:44;;;;;;;;;;;17.30;51.80;;;;;;5069871;27;82190;-48
2022/05/08 13:16:14;;;;;;;;;;;17.40;51.60;;;;;;5069711;27;81998;-48
2022/05/08 13:18:40;;;;;;;;;;;17.40;51.70;;;;;;5069358;27;81794;-49
2022/05/08 13:21:06;;;;;;;;;;;17.40;51.60;;;;;;5072081;27;82911;-48
2022/05/08 13:23:31;;;;;;;;;;;17.50;51.80;;;;;;5075112;27;84403;-49
2022/05/08 13:25:57;;;;;;;;;;;17.50;51.60;;;;;;5073024;27;83953;-48
2022/05/08 13:28:22;;;;;;;;;;;17.50;51.30;;;;;;5072876;27;82821;-48
2022/05/08 13:30:48;;;;;;;;;;;17.50;51.30;;;;;;5072873;27;81810;-48
2022/05/08 13:33:13;;;;;;;;;;;17.60;51.20;;;;;;5073105;27;81814;-48
2022/05/08 13:35:39;;;;;;;;;;;17.60;51.20;;;;;;5072665;27;83324;-48
2022/05/08 13:38:05;;;;;;;;;;;17.60;50.50;;;;;;5072813;27;81975;-49
2022/05/08 13:40:30;;;;;;;;;;;17.60;50.00;;;;;;5073261;27;82821;-48
2022/05/08 13:42:57;;;;;;;;;;;17.60;49.30;;;;;;5072552;27;83560;-49
2022/05/08 13:45:23;;;;;;;;;;;17.60;48.80;;;;;;5075833;27;82064;-48
2022/05/08 13:47:49;;;;;;;;;;;17.60;48.30;;;;;;5072123;27;83332;-49
2022/05/08 13:50:14;;;;;;;;;;;17.70;48.90;;;;;;5073012;27;82182;-49
2022/05/08 13:52:40;;;;;;;;;;;17.70;48.50;;;;;;5072554;27;82977;-48
2022/05/08 13:55:11;;;;;;;;;;;17.80;48.30;;;;;;5072291;27;83610;-49
2022/05/08 13:57:36;;;;;;;;;;;17.80;47.80;;;;;;5072521;27;81754;-49
2022/05/08 14:00:02;;;;;;;;;;;17.80;47.70;;;;;;5072461;27;82061;-48
2022/05/08 14:02:28;;;;;;;;;;;17.80;47.50;;;;;;5072214;27;83947;-48
2022/05/08 14:04:53;;;;;;;;;;;17.80;47.00;;;;;;5072716;27;81315;-48
2022/05/08 14:07:19;;;;;;;;;;;17.90;47.30;;;;;;5075374;27;81750;-48
2022/05/08 14:09:46;;;;;;;;;;;17.90;46.40;;;;;;5072484;27;81877;-49
2022/05/08 14:12:12;;;;;;;;;;;18.00;46.10;;;;;;5071890;27;82759;-48
2022/05/08 14:14:37;;;;;;;;;;;18.00;46.60;;;;;;5072504;27;81764;-49
2022/05/08 14:17:03;;;;;;;;;;;18.00;46.20;;;;;;5072410;27;81843;-49
2022/05/08 14:19:29;;;;;;;;;;;18.00;47.40;;;;;;5072425;27;82234;-48
2022/05/08 14:21:54;;;;;;;;;;;18.00;45.40;;;;;;5071862;27;84130;-49
2022/05/08 14:24:20;;;;;;;;;;;18.00;45.30;;;;;;5072060;27;81795;-48
2022/05/08 14:26:46;;;;;;;;;;;18.00;46.10;;;;;;5074862;27;81919;-48
2022/05/08 14:29:13;;;;;;;;;;;18.10;46.00;;;;;;5072553;27;81239;-48
2022/05/08 14:37:08;;;;;;;;;;;18.10;45.00;;;;;;5071788;27;82770;-48
2022/05/08 14:39:34;;;;;;;;;;;18.10;45.40;;;;;;5071706;27;83876;-48
2022/05/08 14:42:01;;;;;;;;;;;18.10;45.20;;;;;;5071743;27;83609;-48
2022/05/08 14:44:26;;;;;;;;;;;18.10;44.00;;;;;;5071937;27;81837;-49
2022/05/08 14:46:52;;;;;;;;;;;18.10;44.20;;;;;;5072033;27;82023;-48
2022/05/08 14:49:18;;;;;;;;;;;18.10;43.40;;;;;;5074315;27;83053;-46
2022/05/08 14:51:43;;;;;;;;;;;18.10;43.10;;;;;;5071705;27;82103;-48